createdAt,value
2022-12-23T00:01:13.809Z,13.50
2022-12-23T00:03:15.530Z,13.60
2022-12-23T00:05:17.275Z,13.50
2022-12-23T00:07:18.905Z,13.50
2022-12-23T00:09:20.562Z,13.50
2022-12-23T00:11:22.238Z,13.60
2022-12-23T00:13:42.773Z,13.60
2022-12-23T00:15:44.452Z,13.60
2022-12-23T00:17:46.243Z,13.60
2022-12-23T00:19:47.992Z,13.60
2022-12-23T00:21:49.621Z,13.60
2022-12-23T00:23:51.543Z,13.60
2022-12-23T00:25:53.263Z,13.60
2022-12-23T00:28:04.087Z,13.60
2022-12-23T00:30:06.581Z,13.60
2022-12-23T00:32:08.206Z,13.60
2022-12-23T00:34:10.781Z,13.60
2022-12-23T00:36:13.879Z,13.60
2022-12-23T00:38:16.402Z,13.60
2022-12-23T00:40:36.355Z,13.60
2022-12-23T00:42:56.126Z,13.60
2022-12-23T00:45:15.407Z,13.60
2022-12-23T00:47:36.037Z,13.60
2022-12-23T00:49:43.663Z,13.60
2022-12-23T00:51:45.361Z,13.60
2022-12-23T00:53:46.969Z,13.60
2022-12-23T00:55:49.033Z,13.70
2022-12-23T00:57:50.699Z,13.70
2022-12-23T00:59:52.303Z,13.70
2022-12-23T01:02:12.711Z,13.70
2022-12-23T01:04:33.665Z,13.70
2022-12-23T01:06:35.297Z,13.60
2022-12-23T01:08:37.059Z,13.70
2022-12-23T01:10:40.202Z,13.70
2022-12-23T01:12:41.870Z,13.70
2022-12-23T01:14:43.474Z,13.70
2022-12-23T01:16:45.243Z,13.70
2022-12-23T01:18:46.993Z,13.70
2022-12-23T01:20:48.677Z,13.70
2022-12-23T01:22:50.377Z,13.70
2022-12-23T01:24:52.020Z,13.70
2022-12-23T01:26:53.665Z,13.80
2022-12-23T01:28:56.085Z,13.70
2022-12-23T01:30:59.288Z,13.70
2022-12-23T01:33:00.930Z,13.70
2022-12-23T01:35:02.668Z,13.80
2022-12-23T01:37:05.063Z,13.80
2022-12-23T01:39:06.704Z,13.70
2022-12-23T01:41:08.426Z,13.70
2022-12-23T01:43:17.061Z,13.80
2022-12-23T01:45:18.747Z,13.80
2022-12-23T01:47:23.781Z,13.90
2022-12-23T01:49:25.414Z,13.80
2022-12-23T01:51:28.484Z,13.80
2022-12-23T01:53:31.545Z,13.80
2022-12-23T01:55:36.021Z,13.80
2022-12-23T01:57:38.852Z,13.80
2022-12-23T02:00:01.759Z,13.80
2022-12-23T02:02:26.158Z,13.90
2022-12-23T02:04:27.935Z,13.90
2022-12-23T02:07:08.660Z,13.90
2022-12-23T02:09:19.276Z,13.90
2022-12-23T02:11:34.330Z,14.00
2022-12-23T02:14:17.863Z,14.00
2022-12-23T02:16:19.979Z,13.90
2022-12-23T02:18:36.925Z,14.00
2022-12-23T02:20:57.555Z,14.00
2022-12-23T02:23:02.087Z,14.00
2022-12-23T02:25:12.705Z,14.00
2022-12-23T02:27:26.662Z,14.00
2022-12-23T02:29:33.657Z,14.10
2022-12-23T02:31:35.261Z,14.10
2022-12-23T02:33:44.642Z,14.10
2022-12-23T02:35:53.859Z,14.10
2022-12-23T02:38:00.146Z,14.10
2022-12-23T02:40:10.959Z,14.10
2022-12-23T02:42:16.616Z,14.20
2022-12-23T02:44:27.359Z,14.20
2022-12-23T02:46:57.947Z,14.20
2022-12-23T02:49:05.564Z,14.20
2022-12-23T02:51:09.299Z,14.20
2022-12-23T02:53:17.489Z,14.20
2022-12-23T02:55:22.282Z,14.20
2022-12-23T02:57:27.282Z,14.20
2022-12-23T02:59:33.021Z,14.20
2022-12-23T03:01:35.690Z,14.20
2022-12-23T03:03:37.728Z,14.20
2022-12-23T03:05:41.057Z,14.20
2022-12-23T03:07:43.160Z,14.20
2022-12-23T03:10:05.092Z,14.20
2022-12-23T03:12:21.946Z,14.20
2022-12-23T03:14:42.402Z,14.20
2022-12-23T03:16:50.025Z,14.20
2022-12-23T03:19:10.419Z,14.20
2022-12-23T03:21:14.772Z,14.20
2022-12-23T03:23:30.383Z,14.20
2022-12-23T03:25:35.777Z,14.30
2022-12-23T03:27:43.167Z,14.30
2022-12-23T03:29:56.798Z,14.30
2022-12-23T03:32:00.015Z,14.30
2022-12-23T03:34:03.870Z,14.30
2022-12-23T03:36:25.939Z,14.30
2022-12-23T03:38:28.544Z,14.30
2022-12-23T03:40:35.239Z,14.30
2022-12-23T03:42:38.838Z,14.30
2022-12-23T03:45:03.629Z,14.40
2022-12-23T03:47:45.240Z,14.40
2022-12-23T03:49:50.234Z,14.40
2022-12-23T03:51:57.447Z,14.40
2022-12-23T03:54:01.419Z,14.40
2022-12-23T03:56:06.450Z,14.40
2022-12-23T03:58:28.359Z,14.40
2022-12-23T04:00:31.639Z,14.40
2022-12-23T04:02:41.676Z,14.50
2022-12-23T04:04:49.517Z,14.40
2022-12-23T04:06:53.047Z,14.40
2022-12-23T04:08:57.726Z,14.50
2022-12-23T04:10:59.976Z,14.40
2022-12-23T04:13:01.765Z,14.50
2022-12-23T04:15:09.014Z,14.50
2022-12-23T04:17:14.348Z,14.50
2022-12-23T04:19:16.217Z,14.50
2022-12-23T04:21:17.850Z,14.50
2022-12-23T04:23:19.452Z,14.50
2022-12-23T04:25:21.088Z,14.50
2022-12-23T04:27:22.722Z,14.50
2022-12-23T04:29:24.355Z,14.50
2022-12-23T04:31:26.033Z,14.60
2022-12-23T04:33:27.688Z,14.50
2022-12-23T04:35:29.533Z,14.60
2022-12-23T04:37:31.257Z,14.50
2022-12-23T04:39:32.873Z,14.50
2022-12-23T04:41:34.502Z,14.50
2022-12-23T04:43:36.130Z,14.50
2022-12-23T04:45:37.707Z,14.50
2022-12-23T04:47:40.556Z,14.50
2022-12-23T04:49:42.616Z,14.50
2022-12-23T04:51:44.238Z,14.50
2022-12-23T04:53:45.815Z,14.50
2022-12-23T04:55:51.095Z,14.50
2022-12-23T04:57:52.773Z,14.50
2022-12-23T04:59:54.350Z,14.50
2022-12-23T05:01:56.085Z,14.50
2022-12-23T05:03:57.756Z,14.50
2022-12-23T05:05:59.460Z,14.50
2022-12-23T05:08:04.795Z,14.50
2022-12-23T05:10:06.980Z,14.60
2022-12-23T05:12:08.621Z,14.60
2022-12-23T05:14:10.726Z,14.50
2022-12-23T05:16:12.561Z,14.60
2022-12-23T05:18:14.397Z,14.60
2022-12-23T05:20:16.033Z,14.50
2022-12-23T05:22:17.764Z,14.50
2022-12-23T05:24:19.352Z,14.50
2022-12-23T05:26:21.081Z,14.50
2022-12-23T05:28:23.051Z,14.50
2022-12-23T05:30:24.693Z,14.60
2022-12-23T05:32:26.367Z,14.60
2022-12-23T05:34:28.072Z,14.50
2022-12-23T05:36:29.752Z,14.50
2022-12-23T05:38:31.799Z,14.50
2022-12-23T05:40:33.748Z,14.50
2022-12-23T05:42:35.829Z,14.50
2022-12-23T05:44:37.502Z,14.50
2022-12-23T05:46:39.157Z,14.50
2022-12-23T05:48:40.881Z,14.50
2022-12-23T05:50:42.801Z,14.50
2022-12-23T05:52:44.468Z,14.60
2022-12-23T05:54:46.103Z,14.60
2022-12-23T05:56:47.729Z,14.60
2022-12-23T05:58:49.330Z,14.50
2022-12-23T06:00:50.933Z,14.60
2022-12-23T06:02:54.093Z,14.60
2022-12-23T06:04:56.050Z,14.60
2022-12-23T06:06:58.110Z,14.50
2022-12-23T06:09:00.365Z,14.60
2022-12-23T06:11:04.127Z,14.50
2022-12-23T06:13:05.772Z,14.60
2022-12-23T06:15:07.702Z,14.50
2022-12-23T06:17:09.479Z,14.50
2022-12-23T06:19:11.167Z,14.50
2022-12-23T06:21:12.814Z,14.50
2022-12-23T06:23:14.523Z,14.60
2022-12-23T06:25:16.417Z,14.50
2022-12-23T06:27:18.604Z,14.50
2022-12-23T06:29:21.348Z,14.50
2022-12-23T06:31:23.075Z,14.50
2022-12-23T06:33:24.753Z,14.50
2022-12-23T06:35:26.430Z,14.50
2022-12-23T06:37:28.088Z,14.50
2022-12-23T06:39:29.740Z,14.50
2022-12-23T06:41:31.411Z,14.50
2022-12-23T06:43:33.105Z,14.50
2022-12-23T06:45:34.761Z,14.50
2022-12-23T06:47:36.502Z,14.50
2022-12-23T06:49:38.215Z,14.50
2022-12-23T06:51:39.826Z,14.50
2022-12-23T06:53:41.445Z,14.50
2022-12-23T06:55:43.101Z,14.50
2022-12-23T06:57:44.789Z,14.50
2022-12-23T06:59:46.422Z,14.60
2022-12-23T07:01:48.172Z,14.50
2022-12-23T07:03:50.305Z,14.50
2022-12-23T07:05:52.464Z,14.60
2022-12-23T07:07:54.132Z,14.50
2022-12-23T07:09:55.796Z,14.60
2022-12-23T07:11:57.468Z,14.60
2022-12-23T07:14:00.352Z,14.50
2022-12-23T07:16:05.845Z,14.50
2022-12-23T07:18:07.548Z,14.50
2022-12-23T07:20:09.824Z,14.50
2022-12-23T07:22:11.506Z,14.50
2022-12-23T07:24:13.104Z,14.50
2022-12-23T07:26:14.715Z,14.50
2022-12-23T07:28:16.377Z,14.50
2022-12-23T07:30:17.997Z,14.50
2022-12-23T07:32:19.665Z,14.50
2022-12-23T07:34:21.317Z,14.50
2022-12-23T07:36:22.925Z,14.50
2022-12-23T07:38:24.596Z,14.50
2022-12-23T07:40:26.981Z,14.50
2022-12-23T07:42:46.300Z,14.50
2022-12-23T07:44:48.558Z,14.50
2022-12-23T07:46:50.225Z,14.50
2022-12-23T07:48:51.886Z,14.50
2022-12-23T07:50:53.566Z,14.50
2022-12-23T07:52:55.258Z,14.50
2022-12-23T07:54:56.929Z,14.50
2022-12-23T07:56:58.672Z,14.60
2022-12-23T07:59:00.308Z,14.50
2022-12-23T08:01:03.028Z,14.50
2022-12-23T08:03:04.876Z,14.50
2022-12-23T08:05:07.287Z,14.50
2022-12-23T08:07:08.988Z,14.50
2022-12-23T08:09:10.619Z,14.50
2022-12-23T08:11:12.962Z,14.50
2022-12-23T08:13:14.595Z,14.50
2022-12-23T08:15:16.253Z,14.50
2022-12-23T08:17:18.506Z,14.50
2022-12-23T08:19:20.340Z,14.50
2022-12-23T08:21:22.127Z,14.50
2022-12-23T08:23:25.064Z,14.50
2022-12-23T08:25:26.783Z,14.50
2022-12-23T08:27:28.521Z,14.50
2022-12-23T08:29:36.079Z,14.50
2022-12-23T08:31:38.165Z,14.50
2022-12-23T08:33:40.552Z,14.50
2022-12-23T08:35:42.277Z,14.50
2022-12-23T08:37:44.016Z,14.50
2022-12-23T08:39:45.743Z,14.50
2022-12-23T08:41:48.021Z,14.50
2022-12-23T08:43:50.537Z,14.50
2022-12-23T08:45:52.361Z,14.50
2022-12-23T08:47:54.119Z,14.60
2022-12-23T08:49:55.883Z,14.50
2022-12-23T08:51:57.647Z,14.60
2022-12-23T08:54:00.823Z,14.50
2022-12-23T08:56:12.996Z,14.50
2022-12-23T08:58:15.455Z,14.50
2022-12-23T09:00:17.251Z,14.50
2022-12-23T09:02:19.090Z,14.50
2022-12-23T09:04:20.881Z,14.60
2022-12-23T09:06:29.043Z,14.50
2022-12-23T09:08:31.969Z,14.60
2022-12-23T09:10:34.045Z,14.60
2022-12-23T09:12:35.732Z,14.60
2022-12-23T09:14:37.404Z,14.60
2022-12-23T09:16:39.389Z,14.60
2022-12-23T09:18:41.923Z,14.60
2022-12-23T09:20:43.593Z,14.60
2022-12-23T09:22:45.231Z,14.60
2022-12-23T09:24:46.887Z,14.70
2022-12-23T09:26:48.591Z,14.60
2022-12-23T09:28:50.554Z,14.60
2022-12-23T09:30:52.378Z,14.60
2022-12-23T09:32:54.035Z,14.60
2022-12-23T09:34:55.747Z,14.60
2022-12-23T09:36:57.375Z,14.70
2022-12-23T09:38:59.198Z,14.70
2022-12-23T09:41:02.409Z,14.70
2022-12-23T09:43:09.128Z,14.70
2022-12-23T09:45:22.767Z,14.70
2022-12-23T09:47:26.463Z,14.80
2022-12-23T09:49:28.186Z,14.70
2022-12-23T09:51:30.608Z,14.80
2022-12-23T09:53:52.565Z,14.80
2022-12-23T09:56:02.307Z,14.80
2022-12-23T09:58:09.155Z,14.80
2022-12-23T10:00:12.988Z,14.80
2022-12-23T10:02:26.835Z,14.80
2022-12-23T10:04:33.974Z,14.90
2022-12-23T10:06:37.211Z,14.90
2022-12-23T10:08:44.954Z,14.90
2022-12-23T10:10:46.562Z,14.90
2022-12-23T10:12:50.014Z,14.90
2022-12-23T10:14:52.717Z,14.90
2022-12-23T10:17:05.440Z,14.90
2022-12-23T10:19:12.303Z,14.90
2022-12-23T10:21:26.304Z,14.90
2022-12-23T10:23:38.262Z,15.00
2022-12-23T10:25:44.323Z,15.00
2022-12-23T10:27:46.147Z,15.00
2022-12-23T10:29:47.834Z,15.00
2022-12-23T10:31:49.579Z,15.00
2022-12-23T10:33:56.373Z,15.00
2022-12-23T10:35:58.226Z,15.00
2022-12-23T10:38:03.502Z,15.00
2022-12-23T10:40:05.149Z,15.00
2022-12-23T10:42:18.962Z,15.00
2022-12-23T10:44:39.318Z,15.00
2022-12-23T10:46:44.404Z,15.00
2022-12-23T10:49:05.020Z,15.00
2022-12-23T10:51:42.337Z,15.00
2022-12-23T10:53:46.738Z,15.00
2022-12-23T10:55:49.285Z,15.00
2022-12-23T10:57:51.881Z,15.00
2022-12-23T10:59:53.991Z,15.00
2022-12-23T11:02:01.409Z,15.10
2022-12-23T11:04:06.853Z,15.00
2022-12-23T11:06:10.948Z,15.10
2022-12-23T11:08:15.328Z,15.00
2022-12-23T11:10:19.345Z,15.10
2022-12-23T11:12:42.684Z,15.10
2022-12-23T11:14:55.234Z,15.00
2022-12-23T11:16:56.931Z,15.00
2022-12-23T11:19:04.384Z,15.00
2022-12-23T11:21:06.399Z,15.00
2022-12-23T11:23:28.218Z,15.00
2022-12-23T11:25:38.820Z,15.10
2022-12-23T11:27:43.325Z,15.10
2022-12-23T11:29:48.044Z,15.10
2022-12-23T11:31:50.140Z,15.10
2022-12-23T11:33:55.995Z,15.10
2022-12-23T11:36:06.780Z,15.10
2022-12-23T11:38:12.142Z,15.10
2022-12-23T11:40:20.497Z,15.10
2022-12-23T11:42:27.377Z,15.10
2022-12-23T11:44:29.123Z,15.10
2022-12-23T11:46:32.642Z,15.10
2022-12-23T11:48:34.452Z,15.10
2022-12-23T11:50:38.692Z,15.10
2022-12-23T11:52:49.302Z,15.10
2022-12-23T11:54:57.315Z,15.10
2022-12-23T11:57:00.571Z,15.10
2022-12-23T11:59:16.016Z,15.10
2022-12-23T12:01:18.695Z,15.10
2022-12-23T12:03:22.091Z,15.20
2022-12-23T12:05:29.799Z,15.10
2022-12-23T12:07:31.935Z,15.10
2022-12-23T12:09:34.256Z,15.20
2022-12-23T12:11:38.633Z,15.20
2022-12-23T12:13:42.408Z,15.10
2022-12-23T12:15:48.164Z,15.10
2022-12-23T12:17:52.221Z,15.20
2022-12-23T12:20:01.133Z,15.10
2022-12-23T12:22:05.878Z,15.20
2022-12-23T12:24:19.232Z,15.10
2022-12-23T12:26:32.531Z,15.10
2022-12-23T12:28:36.977Z,15.10
2022-12-23T12:30:41.939Z,15.20
2022-12-23T12:32:50.478Z,15.20
2022-12-23T12:34:56.348Z,15.20
2022-12-23T12:37:00.962Z,15.20
2022-12-23T12:39:02.741Z,15.30
2022-12-23T12:41:15.677Z,15.20
2022-12-23T12:43:26.420Z,15.20
2022-12-23T12:45:32.194Z,15.20
2022-12-23T12:47:53.216Z,15.20
2022-12-23T12:50:03.249Z,15.20
2022-12-23T12:52:04.919Z,15.20
2022-12-23T12:54:14.442Z,15.20
2022-12-23T12:56:27.032Z,15.20
2022-12-23T12:58:28.769Z,15.20
2022-12-23T13:00:34.252Z,15.30
2022-12-23T13:02:43.778Z,15.20
2022-12-23T13:04:48.683Z,15.20
2022-12-23T13:07:05.481Z,15.20
2022-12-23T13:09:13.800Z,15.20
2022-12-23T13:11:34.699Z,15.20
2022-12-23T13:13:48.587Z,15.20
2022-12-23T13:15:54.435Z,15.20
2022-12-23T13:18:01.901Z,15.30
2022-12-23T13:20:05.439Z,15.20
2022-12-23T13:22:11.496Z,15.20
2022-12-23T13:24:19.781Z,15.20
2022-12-23T13:26:43.799Z,15.20
2022-12-23T13:28:57.913Z,15.30
2022-12-23T13:31:14.303Z,15.30
2022-12-23T13:33:35.301Z,15.30
2022-12-23T13:35:43.427Z,15.30
2022-12-23T13:37:59.213Z,15.30
2022-12-23T13:40:07.435Z,15.30
2022-12-23T13:42:12.181Z,15.30
2022-12-23T13:44:15.114Z,15.30
2022-12-23T13:46:25.192Z,15.30
2022-12-23T13:48:26.901Z,15.30
2022-12-23T13:50:38.554Z,15.30
2022-12-23T13:52:40.267Z,15.30
2022-12-23T13:54:51.301Z,15.30
2022-12-23T13:57:01.276Z,15.30
2022-12-23T13:59:03.132Z,15.30
2022-12-23T14:01:07.846Z,15.40
2022-12-23T14:03:09.575Z,15.30
2022-12-23T14:05:32.060Z,15.30
2022-12-23T14:07:34.195Z,15.40
2022-12-23T14:09:37.122Z,15.40
2022-12-23T14:11:38.872Z,15.40
2022-12-23T14:13:49.659Z,15.50
2022-12-23T14:15:55.059Z,15.40
2022-12-23T14:18:09.015Z,15.40
2022-12-23T14:20:30.034Z,15.40
2022-12-23T14:22:34.441Z,15.40
2022-12-23T14:24:45.277Z,15.40
2022-12-23T14:26:46.889Z,15.40
2022-12-23T14:28:57.485Z,15.50
2022-12-23T14:30:59.426Z,15.50
2022-12-23T14:33:19.835Z,15.50
2022-12-23T14:35:21.545Z,15.50
2022-12-23T14:37:24.226Z,15.50
2022-12-23T14:39:30.573Z,15.50
2022-12-23T14:41:38.828Z,15.50
2022-12-23T14:43:45.983Z,15.50
2022-12-23T14:45:54.541Z,15.50
2022-12-23T14:47:56.257Z,15.50
2022-12-23T14:50:17.881Z,15.50
2022-12-23T14:52:38.066Z,15.60
2022-12-23T14:55:06.013Z,15.60
2022-12-23T14:57:07.822Z,15.60
2022-12-23T14:59:09.406Z,15.60
2022-12-23T15:01:15.192Z,15.60
2022-12-23T15:03:17.665Z,15.60
2022-12-23T15:05:22.620Z,15.60
2022-12-23T15:07:43.787Z,15.70
2022-12-23T15:10:00.252Z,15.70
2022-12-23T15:12:15.013Z,15.70
2022-12-23T15:14:36.991Z,15.70
2022-12-23T15:16:40.266Z,15.70
2022-12-23T15:18:52.010Z,15.70
2022-12-23T15:20:58.307Z,15.70
2022-12-23T15:23:01.239Z,15.70
2022-12-23T15:25:03.613Z,15.70
2022-12-23T15:27:27.841Z,15.80
2022-12-23T15:29:27.420Z,15.70
2022-12-23T15:31:32.681Z,15.80
2022-12-23T15:35:57.408Z,15.90
2022-12-23T15:38:00.088Z,15.80
2022-12-23T15:40:13.154Z,15.80
2022-12-23T15:42:25.611Z,15.80
2022-12-23T15:44:35.150Z,15.80
2022-12-23T15:46:38.750Z,15.80
2022-12-23T15:48:41.832Z,15.80
2022-12-23T15:50:43.535Z,15.90
2022-12-23T15:52:46.260Z,15.90
2022-12-23T15:55:06.526Z,15.90
2022-12-23T15:57:13.979Z,15.90
2022-12-23T15:59:21.216Z,15.90
2022-12-23T16:01:23.274Z,15.90
2022-12-23T16:03:38.808Z,15.90
2022-12-23T16:05:42.048Z,15.90
2022-12-23T16:07:43.748Z,15.90
2022-12-23T16:09:45.396Z,15.90
2022-12-23T16:11:56.657Z,15.90
2022-12-23T16:14:00.212Z,15.90
2022-12-23T16:16:20.230Z,15.90
2022-12-23T16:18:21.967Z,15.90
2022-12-23T16:20:25.252Z,15.90
2022-12-23T16:22:29.033Z,15.90
2022-12-23T16:24:32.357Z,15.90
2022-12-23T16:26:43.233Z,15.90
2022-12-23T16:28:49.256Z,15.90
2022-12-23T16:30:55.250Z,15.90
2022-12-23T16:32:58.070Z,16.00
2022-12-23T16:35:08.843Z,15.90
2022-12-23T16:37:10.649Z,15.90
2022-12-23T16:39:22.742Z,15.90
2022-12-23T16:41:24.389Z,16.00
2022-12-23T16:43:26.084Z,15.90
2022-12-23T16:45:27.850Z,16.00
2022-12-23T16:47:30.478Z,15.90
2022-12-23T16:49:33.922Z,15.90
2022-12-23T16:51:37.524Z,16.00
2022-12-23T16:53:39.274Z,15.90
2022-12-23T16:55:48.210Z,16.00
2022-12-23T16:57:52.972Z,16.00
2022-12-23T16:59:54.676Z,16.00
2022-12-23T17:02:02.884Z,16.00
2022-12-23T17:04:06.021Z,16.00
2022-12-23T17:06:12.012Z,16.00
2022-12-23T17:08:14.099Z,16.00
2022-12-23T17:10:16.996Z,16.00
2022-12-23T17:12:18.975Z,16.00
2022-12-23T17:14:22.211Z,16.00
2022-12-23T17:16:24.446Z,16.00
2022-12-23T17:18:26.179Z,16.00
2022-12-23T17:20:27.942Z,16.00
2022-12-23T17:22:31.070Z,16.00
2022-12-23T17:24:32.665Z,16.00
2022-12-23T17:26:34.327Z,16.00
2022-12-23T17:28:35.971Z,16.00
2022-12-23T17:30:40.896Z,16.00
2022-12-23T17:32:45.894Z,16.00
2022-12-23T17:34:47.607Z,16.00
2022-12-23T17:36:51.106Z,16.10
2022-12-23T17:38:53.156Z,16.10
2022-12-23T17:40:55.618Z,16.10
2022-12-23T17:42:57.313Z,16.00
2022-12-23T17:44:58.992Z,16.00
2022-12-23T17:47:01.108Z,16.10
2022-12-23T17:49:02.900Z,16.10
2022-12-23T17:51:04.667Z,16.10
2022-12-23T17:53:06.396Z,16.10
2022-12-23T17:55:26.882Z,16.10
2022-12-23T17:57:28.609Z,16.10
2022-12-23T17:59:30.256Z,16.10
2022-12-23T18:01:32.221Z,16.10
2022-12-23T18:03:34.027Z,16.10
2022-12-23T18:05:36.201Z,16.10
2022-12-23T18:07:37.885Z,16.10
2022-12-23T18:09:39.628Z,16.20
2022-12-23T18:11:45.557Z,16.10
2022-12-23T18:13:48.005Z,16.10
2022-12-23T18:15:50.004Z,16.10
2022-12-23T18:17:52.275Z,16.20
2022-12-23T18:19:54.710Z,16.20
2022-12-23T18:21:56.430Z,16.20
2022-12-23T18:23:59.586Z,16.20
2022-12-23T18:26:01.401Z,16.20
2022-12-23T18:28:03.599Z,16.20
2022-12-23T18:30:05.680Z,16.20
2022-12-23T18:32:07.476Z,16.20
2022-12-23T18:34:14.285Z,16.20
2022-12-23T18:36:27.087Z,16.20
2022-12-23T18:38:28.995Z,16.20
2022-12-23T18:40:32.910Z,16.20
2022-12-23T18:42:34.906Z,16.20
2022-12-23T18:44:36.886Z,16.20
2022-12-23T18:46:38.642Z,16.20
2022-12-23T18:48:40.387Z,16.20
2022-12-23T18:50:46.672Z,16.20
2022-12-23T18:52:48.659Z,16.20
2022-12-23T18:54:52.688Z,16.20
2022-12-23T18:56:54.365Z,16.20
2022-12-23T18:58:56.156Z,16.20
2022-12-23T19:01:01.209Z,16.20
2022-12-23T19:03:03.107Z,16.20
2022-12-23T19:05:07.294Z,16.20
2022-12-23T19:07:10.028Z,16.20
2022-12-23T19:09:16.616Z,16.20
2022-12-23T19:11:20.262Z,16.20
2022-12-23T19:13:22.525Z,16.20
2022-12-23T19:15:24.452Z,16.20
2022-12-23T19:17:26.176Z,16.20
2022-12-23T19:19:27.842Z,16.20
2022-12-23T19:21:29.637Z,16.10
2022-12-23T19:23:32.427Z,16.20
2022-12-23T19:25:49.252Z,16.20
2022-12-23T19:27:58.508Z,16.10
2022-12-23T19:30:00.306Z,16.10
2022-12-23T19:32:02.102Z,16.10
2022-12-23T19:34:05.343Z,16.10
2022-12-23T19:36:12.574Z,16.20
2022-12-23T19:38:14.364Z,16.10
2022-12-23T19:40:16.785Z,16.10
2022-12-23T19:42:18.469Z,16.10
2022-12-23T19:44:20.221Z,16.10
2022-12-23T19:46:21.953Z,16.10
2022-12-23T19:48:23.775Z,16.10
2022-12-23T19:50:27.072Z,16.10
2022-12-23T19:52:28.949Z,16.10
2022-12-23T19:54:30.763Z,16.10
2022-12-23T19:56:32.470Z,16.00
2022-12-23T19:58:35.460Z,16.00
2022-12-23T20:00:37.223Z,16.00
2022-12-23T20:02:39.374Z,16.00
2022-12-23T20:04:41.393Z,16.00
2022-12-23T20:06:43.651Z,16.00
2022-12-23T20:08:45.602Z,16.00
2022-12-23T20:10:47.515Z,16.00
2022-12-23T20:12:49.226Z,16.00
2022-12-23T20:14:50.926Z,15.90
2022-12-23T20:16:52.764Z,15.90
2022-12-23T20:18:54.850Z,16.00
2022-12-23T20:20:57.647Z,15.90
2022-12-23T20:23:01.112Z,15.90
2022-12-23T20:25:02.837Z,15.90
2022-12-23T20:27:09.497Z,15.90
2022-12-23T20:29:13.299Z,15.90
2022-12-23T20:31:16.621Z,15.90
2022-12-23T20:33:18.364Z,15.80
2022-12-23T20:35:20.118Z,15.90
2022-12-23T20:37:22.039Z,15.80
2022-12-23T20:39:23.971Z,15.80
2022-12-23T20:41:27.240Z,15.80
2022-12-23T20:43:29.009Z,15.80
2022-12-23T20:45:30.910Z,15.80
2022-12-23T20:47:32.629Z,15.70
2022-12-23T20:49:34.438Z,15.70
2022-12-23T20:51:40.735Z,15.70
2022-12-23T20:53:42.702Z,15.70
2022-12-23T20:55:44.438Z,15.70
2022-12-23T20:57:46.159Z,15.70
2022-12-23T20:59:48.010Z,15.70
2022-12-23T21:01:50.072Z,15.70
2022-12-23T21:03:52.460Z,15.70
2022-12-23T21:05:56.350Z,15.70
2022-12-23T21:07:58.101Z,15.70
2022-12-23T21:09:59.821Z,15.70
2022-12-23T21:12:01.852Z,15.60
2022-12-23T21:14:06.753Z,15.70
2022-12-23T21:16:10.910Z,15.60
2022-12-23T21:18:12.858Z,15.60
2022-12-23T21:20:14.731Z,15.60
2022-12-23T21:22:16.543Z,15.60
2022-12-23T21:24:21.396Z,15.60
2022-12-23T21:26:26.672Z,15.60
2022-12-23T21:28:28.425Z,15.50
2022-12-23T21:30:30.121Z,15.50
2022-12-23T21:32:31.852Z,15.60
2022-12-23T21:34:33.650Z,15.50
2022-12-23T21:36:37.250Z,15.50
2022-12-23T21:38:40.707Z,15.50
2022-12-23T21:40:42.424Z,15.50
2022-12-23T21:42:44.191Z,15.50
2022-12-23T21:44:45.929Z,15.50
2022-12-23T21:46:49.094Z,15.50
2022-12-23T21:48:50.846Z,15.50
2022-12-23T21:50:52.605Z,15.40
2022-12-23T21:52:54.367Z,15.40
2022-12-23T21:54:59.790Z,15.40
2022-12-23T21:57:02.194Z,15.40
2022-12-23T21:59:06.023Z,15.40
2022-12-23T22:01:08.366Z,15.40
2022-12-23T22:03:10.167Z,15.40
2022-12-23T22:05:11.907Z,15.40
2022-12-23T22:07:13.615Z,15.40
2022-12-23T22:09:16.908Z,15.40
2022-12-23T22:11:19.737Z,15.30
2022-12-23T22:13:21.497Z,15.40
2022-12-23T22:15:23.749Z,15.40
2022-12-23T22:17:25.553Z,15.30
2022-12-23T22:19:27.274Z,15.30
2022-12-23T22:21:30.182Z,15.30
2022-12-23T22:23:31.891Z,15.30
2022-12-23T22:25:33.649Z,15.30
2022-12-23T22:27:35.393Z,15.20
2022-12-23T22:29:37.122Z,15.20
2022-12-23T22:31:48.861Z,15.30
2022-12-23T22:33:50.744Z,15.20
2022-12-23T22:35:55.735Z,15.20
2022-12-23T22:37:58.059Z,15.20
2022-12-23T22:39:59.747Z,15.20
2022-12-23T22:42:01.542Z,15.20
2022-12-23T22:44:03.272Z,15.20
2022-12-23T22:46:05.104Z,15.20
2022-12-23T22:48:07.130Z,15.20
2022-12-23T22:50:09.053Z,15.10
2022-12-23T22:52:10.714Z,15.10
2022-12-23T22:54:12.426Z,15.10
2022-12-23T22:56:15.483Z,15.10
2022-12-23T22:58:17.125Z,15.10
2022-12-23T23:00:18.914Z,15.10
2022-12-23T23:02:20.616Z,15.10
2022-12-23T23:04:22.653Z,15.10
2022-12-23T23:06:31.846Z,15.00
2022-12-23T23:08:33.992Z,15.10
2022-12-23T23:10:35.675Z,15.00
2022-12-23T23:12:37.347Z,15.00
2022-12-23T23:14:54.124Z,15.00
2022-12-23T23:16:55.806Z,15.00
2022-12-23T23:18:59.719Z,15.00
2022-12-23T23:21:01.480Z,15.00
2022-12-23T23:23:03.380Z,15.00
2022-12-23T23:25:05.361Z,15.00
2022-12-23T23:27:07.022Z,15.00
2022-12-23T23:29:08.684Z,15.00
2022-12-23T23:31:40.421Z,15.00
2022-12-23T23:33:32.192Z,15.00
2022-12-23T23:35:34.332Z,15.00
2022-12-23T23:37:36.000Z,14.90
2022-12-23T23:39:37.685Z,14.90
2022-12-23T23:41:40.828Z,14.90
2022-12-23T23:43:42.449Z,14.90
2022-12-23T23:45:44.279Z,14.90
2022-12-23T23:47:45.927Z,14.90
2022-12-23T23:49:47.594Z,14.80
2022-12-23T23:51:50.387Z,14.80
2022-12-23T23:53:52.065Z,14.80
2022-12-23T23:55:59.893Z,14.80
2022-12-23T23:58:01.759Z,14.80
